Tifton, Georgia
Current Conditions -  °F | °C
As of 12:50 PM on Thursday 23 Oct 2014 (Local Time) from KTMA Reporting Station
Clear Clear  
Wind Chill: 67°   Ceiling: Unl
Heat Index: 67°   Visibility: 10mi
Dew Point: 41°   Wind: 0mph
Humidity: 39%   Direction: NA
Pressure: 30.09"   Gusts: NA
Location:  31.45°N, 83.51°W
Report Text: KTMA 231650Z AUTO 00000KT 10SM CLR 19/05 A3009 RMK AO2 T01920049
Loading
Personal Weather Stations






























Interactive Weather Map
Tropical Storm Tracking
New forecast layout! Learn more

10-Day Weather Forecast

Advertisements
Track Severe Weather on mobile